KDWH/DWH METAR and TAF weather

Enter ICAO airport designator
Station Type Date Time Source
KDWH METAR 2019/12/14 10:53 UTC NOAA

KDWH 141053Z AUTO 00000KT 10SM CLR 06/04 A2986 RMK AO2 SLP111 T00560044


Station Type Date Time Source
KDWH Decoded METAR 2019/12/14 10:53 UTC NOAA

HOUSTON HOOKS MEMORIAL, TX, United States (KDWH) 30-04N 95-33W 46M
Dec 14, 2019 - 05:53 AM EST / 2019.12.14 1053 UTC
Wind: Calm:0
Visibility: 10 mile(s):0
Sky conditions: clear
Temperature: 42.1 F (5.6 C)
Dew Point: 39.9 F (4.4 C)
Relative Humidity: 91%
Pressure (altimeter): 29.86 in. Hg (1011 hPa)
ob: KDWH 141053Z AUTO 00000KT 10SM CLR 06/04 A2986 RMK AO2 SLP111 T00560044
cycle: 11

Station Type Date Time Source
KDWH TAF 2017/02/07 15:09 UTC NOAA

TAF
AMD KDWH 071507Z 0715/0812 23010KT P6SM BKN015
TEMPO 0715/0719 SCT015
FM071900 25010KT P6SM SCT025
FM080100 22005KT P6SM SCT250
TEMPO 0807/0809 3SM BR BKN013
FM080900 VRB03KT 2SM BR OVC008

Example: see airport list